createdAt,value
2023-05-21T00:08:00.137Z,0.1
2023-05-21T00:20:00.408Z,0.1
2023-05-21T00:32:00.316Z,0.2
2023-05-21T00:44:00.277Z,0.2
2023-05-21T00:56:00.353Z,0.2
2023-05-21T01:08:00.359Z,0.2
2023-05-21T01:20:00.296Z,0.2
2023-05-21T01:32:00.292Z,0.3
2023-05-21T01:44:00.418Z,0.3
2023-05-21T01:56:00.390Z,0.3
2023-05-21T02:08:00.314Z,0.3
2023-05-21T02:20:00.310Z,0.3
2023-05-21T02:32:00.325Z,0.4
2023-05-21T02:44:00.572Z,0.4
2023-05-21T02:56:00.430Z,0.4
2023-05-21T03:08:00.396Z,0.4
2023-05-21T03:20:00.337Z,0.4
2023-05-21T03:32:00.558Z,0.5
2023-05-21T03:44:00.442Z,0.5
2023-05-21T03:56:00.422Z,0.5
2023-05-21T04:08:00.570Z,0.5
2023-05-21T04:20:00.550Z,0.5
2023-05-21T04:32:00.505Z,0.6
2023-05-21T04:44:00.450Z,0.6
2023-05-21T04:56:00.584Z,0.6
2023-05-21T05:08:00.562Z,0.6
2023-05-21T05:20:00.502Z,0.6
2023-05-21T05:32:00.503Z,0.7
2023-05-21T05:44:00.617Z,0.7
2023-05-21T05:56:00.602Z,0.7
2023-05-21T06:08:00.535Z,0.7
2023-05-21T06:20:00.531Z,0.7
2023-05-21T06:32:00.689Z,0.8
2023-05-21T06:44:00.651Z,0.8
2023-05-21T06:56:00.575Z,0.8
2023-05-21T07:08:00.760Z,0.9
2023-05-21T07:20:00.678Z,0.9
2023-05-21T07:32:00.747Z,0.9
2023-05-21T07:44:00.873Z,0.9
2023-05-21T07:56:00.943Z,0.9
2023-05-21T08:08:00.727Z,1
2023-05-21T08:20:00.689Z,1
2023-05-21T08:32:00.898Z,1
2023-05-21T08:44:01.237Z,1
2023-05-21T08:56:00.733Z,1
2023-05-21T09:08:00.770Z,1.1
2023-05-21T09:20:00.856Z,1.1
2023-05-21T09:32:00.869Z,1.1
2023-05-21T09:44:00.772Z,1.1
2023-05-21T09:56:00.750Z,1.1
2023-05-21T10:08:00.973Z,1.2
2023-05-21T10:20:00.879Z,1.2
2023-05-21T10:32:00.897Z,1.2
2023-05-21T10:44:00.770Z,1.2
2023-05-21T10:56:00.909Z,1.2
2023-05-21T11:08:00.900Z,1.3
2023-05-21T11:20:00.825Z,1.3
2023-05-21T11:32:01.065Z,1.4
2023-05-21T11:44:00.943Z,1.4
2023-05-21T11:56:00.932Z,1.4
2023-05-21T12:08:00.846Z,1.4
2023-05-21T12:20:01.036Z,1.4
2023-05-21T12:32:01.031Z,1.4
2023-05-21T12:44:00.975Z,1.4
2023-05-21T12:56:01.091Z,1.4
2023-05-21T13:08:01.188Z,1.5
2023-05-21T13:20:00.993Z,1.5
2023-05-21T13:32:01.026Z,1.6
2023-05-21T13:44:01.123Z,1.6
2023-05-21T13:56:01.106Z,1.6
2023-05-21T14:08:01.034Z,1.6
2023-05-21T14:20:01.017Z,1.6
2023-05-21T14:32:01.176Z,1.7
2023-05-21T14:44:01.141Z,1.7
2023-05-21T14:56:01.072Z,1.7
2023-05-21T15:08:01.257Z,1.7
2023-05-21T15:20:01.260Z,1.7
2023-05-21T15:32:01.216Z,1.8
2023-05-21T15:44:01.108Z,1.8
2023-05-21T15:56:01.173Z,1.8
2023-05-21T16:08:01.248Z,1.8
2023-05-21T16:20:01.248Z,1.8
2023-05-21T16:32:01.229Z,1.9
2023-05-21T16:44:01.168Z,1.9
2023-05-21T16:56:01.281Z,1.9
2023-05-21T17:08:01.272Z,1.9
2023-05-21T17:20:01.220Z,1.9
2023-05-21T17:32:01.418Z,2
2023-05-21T17:44:01.314Z,2
2023-05-21T17:56:01.294Z,2
2023-05-21T18:08:01.261Z,2
2023-05-21T18:20:01.429Z,2
2023-05-21T18:32:01.420Z,2.1
2023-05-21T18:44:01.320Z,2.1
2023-05-21T18:56:01.257Z,2.1
2023-05-21T19:08:01.455Z,2.1
2023-05-21T19:20:01.384Z,2.1
2023-05-21T19:32:01.398Z,2.2
2023-05-21T19:44:01.310Z,2.2
2023-05-21T19:56:01.485Z,2.2
2023-05-21T20:08:01.423Z,2.2
2023-05-21T20:20:01.414Z,2.2
2023-05-21T20:32:01.553Z,2.3
2023-05-21T20:44:01.506Z,2.3
2023-05-21T20:56:01.534Z,2.3
2023-05-21T21:08:01.427Z,2.3
2023-05-21T21:20:01.546Z,2.3
2023-05-21T21:32:01.626Z,2.4
2023-05-21T21:44:01.495Z,2.4
2023-05-21T21:56:01.564Z,2.4
2023-05-21T22:08:01.611Z,2.5
2023-05-21T22:20:01.577Z,2.5
2023-05-21T22:32:01.528Z,2.5
2023-05-21T22:44:01.724Z,2.5
2023-05-21T22:56:01.649Z,2.5
2023-05-21T23:08:01.659Z,0
2023-05-21T23:20:01.576Z,0
2023-05-21T23:32:01.824Z,0.1
2023-05-21T23:44:01.684Z,0.1
2023-05-21T23:56:01.661Z,0.1
